Time;durP1;ratioP1;P1;durP2;ratioP2;P2;SDS_P1;SDS_P2;PMS_P1;PMS_P2;Temp;Humidity;BMP_temperature;BMP_pressure;BME280_temperature;BME280_humidity;BME280_pressure;Samples;Min_cycle;Max_cycle;Signal;HPM_P1;HPM_P2
2021/11/27 00:00:48;;;;;;;3.30;3.00;;;4.90;99.90;;;;;;6253012;22;20260;-51
2021/11/27 00:03:15;;;;;;;3.95;3.28;;;4.30;99.90;;;;;;6243238;22;20234;-52
2021/11/27 00:05:42;;;;;;;3.30;3.00;;;4.10;99.90;;;;;;6253029;22;20186;-52
2021/11/27 00:08:10;;;;;;;4.38;2.80;;;4.90;99.90;;;;;;6252834;22;20224;-52
2021/11/27 00:10:38;;;;;;;3.72;3.40;;;4.20;99.90;;;;;;6252590;22;20175;-52
2021/11/27 00:13:06;;;;;;;3.30;3.00;;;4.60;99.90;;;;;;6253307;22;20158;-52
2021/11/27 00:15:34;;;;;;;3.60;3.03;;;4.80;99.90;;;;;;6253056;22;20193;-51
2021/11/27 00:18:00;;;;;;;4.43;2.97;;;4.50;99.90;;;;;;6252213;22;20240;-52
2021/11/27 00:20:33;;;;;;;4.15;3.35;;;4.80;99.90;;;;;;6241984;22;20183;-52
2021/11/27 00:22:59;;;;;;;4.72;3.70;;;4.70;99.90;;;;;;6253329;22;20196;-51
2021/11/27 00:25:25;;;;;;;2.93;2.73;;;4.70;99.90;;;;;;6252444;22;20146;-51
2021/11/27 00:27:51;;;;;;;3.25;2.95;;;4.50;99.90;;;;;;6253115;22;20415;-52
2021/11/27 00:30:22;;;;;;;3.80;3.05;;;4.20;99.90;;;;;;6242484;22;20626;-52
2021/11/27 00:32:48;;;;;;;3.75;3.10;;;4.40;99.90;;;;;;6252668;22;20217;-52
2021/11/27 00:35:14;;;;;;;3.65;3.35;;;4.40;99.90;;;;;;6253301;22;20624;-51
2021/11/27 00:37:40;;;;;;;4.40;3.17;;;3.90;99.90;;;;;;6252393;23;20149;-51
2021/11/27 00:40:08;;;;;;;3.77;3.07;;;4.40;99.90;;;;;;6251499;22;20452;-52
2021/11/27 00:42:34;;;;;;;3.17;2.85;;;4.50;99.90;;;;;;6252693;22;20468;-51
2021/11/27 00:45:00;;;;;;;3.85;3.20;;;4.60;99.90;;;;;;6242698;22;20210;-52
2021/11/27 00:47:26;;;;;;;4.00;3.60;;;4.50;99.90;;;;;;6252049;22;20241;-52
2021/11/27 00:49:54;;;;;;;3.90;3.47;;;4.80;99.90;;;;;;6252769;23;20546;-51
2021/11/27 00:52:23;;;;;;;3.83;3.42;;;4.80;99.90;;;;;;6253324;22;20157;-52
2021/11/27 00:54:49;;;;;;;3.83;3.35;;;5.00;99.90;;;;;;6242700;22;20610;-52
2021/11/27 00:57:15;;;;;;;3.75;3.38;;;4.00;99.90;;;;;;6252297;22;20239;-52
2021/11/27 00:59:41;;;;;;;4.38;3.80;;;4.10;99.90;;;;;;6241934;23;20487;-51
2021/11/27 01:02:07;;;;;;;4.45;3.45;;;4.90;99.90;;;;;;6252362;22;20175;-52
2021/11/27 01:04:33;;;;;;;4.47;3.63;;;4.80;99.90;;;;;;6253102;22;20203;-51
2021/11/27 01:06:58;;;;;;;4.07;3.63;;;4.50;99.90;;;;;;6252466;23;20511;-51
2021/11/27 01:09:24;;;;;;;4.57;4.10;;;4.70;99.90;;;;;;6252118;22;20443;-51
2021/11/27 01:11:53;;;;;;;5.87;4.00;;;4.50;99.90;;;;;;6252931;23;20228;-51
2021/11/27 01:14:25;;;;;;;3.70;3.35;;;4.90;99.90;;;;;;6253013;22;20157;-51
2021/11/27 01:16:57;;;;;;;5.95;4.32;;;4.10;99.90;;;;;;6241234;22;20145;-51
2021/11/27 01:19:24;;;;;;;4.47;4.05;;;5.00;99.90;;;;;;6242359;22;20613;-51
2021/11/27 01:21:53;;;;;;;5.40;3.15;;;4.50;99.90;;;;;;6242201;22;20179;-51
2021/11/27 01:24:19;;;;;;;9.55;3.63;;;4.60;99.90;;;;;;6252564;22;20157;-51
2021/11/27 01:26:45;;;;;;;5.00;3.60;;;4.60;99.90;;;;;;6252152;22;20146;-52
2021/11/27 01:29:11;;;;;;;6.50;4.03;;;4.60;99.90;;;;;;6252785;22;20372;-51
2021/11/27 01:31:38;;;;;;;4.30;3.90;;;4.80;99.90;;;;;;6252844;23;20197;-52
2021/11/27 01:34:07;;;;;;;4.13;3.63;;;4.70;99.90;;;;;;6252613;22;20878;-51
2021/11/27 01:36:34;;;;;;;4.82;4.07;;;4.80;99.90;;;;;;6252153;23;20185;-52
2021/11/27 01:39:00;;;;;;;4.22;3.67;;;4.80;99.90;;;;;;6251824;22;20153;-51
2021/11/27 01:41:26;;;;;;;3.85;3.55;;;4.50;99.90;;;;;;6252507;23;20227;-52
2021/11/27 01:43:51;;;;;;;4.07;3.67;;;4.50;99.90;;;;;;6242456;23;20185;-52
2021/11/27 01:46:18;;;;;;;4.50;4.10;;;4.80;99.90;;;;;;6252675;22;20396;-52
2021/11/27 01:48:44;;;;;;;4.00;3.60;;;4.70;99.90;;;;;;6241889;22;20179;-51
2021/11/27 01:51:17;;;;;;;5.28;4.28;;;4.70;99.90;;;;;;6252766;22;20216;-51
2021/11/27 01:53:48;;;;;;;5.80;4.55;;;4.70;99.90;;;;;;6252700;22;20229;-52
2021/11/27 01:56:19;;;;;;;4.32;3.92;;;4.30;99.90;;;;;;6252546;22;20138;-52
2021/11/27 01:58:45;;;;;;;4.18;3.38;;;4.40;99.90;;;;;;6252018;22;20172;-52
2021/11/27 02:01:17;;;;;;;6.18;4.22;;;4.70;99.90;;;;;;6251971;22;20576;-51
2021/11/27 02:03:44;;;;;;;4.53;3.92;;;4.60;99.90;;;;;;6252552;22;20196;-52
2021/11/27 02:06:11;;;;;;;4.53;4.13;;;4.50;99.90;;;;;;6240551;22;20338;-52
2021/11/27 02:08:39;;;;;;;4.55;4.00;;;4.90;99.90;;;;;;6249931;22;20588;-52
2021/11/27 02:11:06;;;;;;;4.38;3.85;;;4.60;99.90;;;;;;6251306;22;20646;-52
2021/11/27 02:13:32;;;;;;;3.88;3.45;;;4.30;99.90;;;;;;6252132;22;20646;-52
2021/11/27 02:15:58;;;;;;;4.70;3.60;;;4.40;99.90;;;;;;6252112;22;20152;-52
2021/11/27 02:18:24;;;;;;;3.97;3.57;;;4.70;99.90;;;;;;6251809;23;20163;-53
2021/11/27 02:20:57;;;;;;;5.00;3.97;;;4.80;99.90;;;;;;6253662;22;20409;-52
2021/11/27 02:23:23;;;;;;;4.25;3.85;;;4.80;99.90;;;;;;6254192;22;20512;-51
2021/11/27 02:25:50;;;;;;;4.47;4.07;;;5.00;99.90;;;;;;6254302;22;20159;-51
2021/11/27 02:28:16;;;;;;;3.63;3.28;;;4.80;99.90;;;;;;6253569;22;20683;-51
2021/11/27 02:30:41;;;;;;;5.10;4.60;;;4.70;99.90;;;;;;6242503;23;20190;-51
2021/11/27 02:33:08;;;;;;;4.07;3.60;;;4.70;99.90;;;;;;6241818;23;20388;-51
2021/11/27 02:35:34;;;;;;;5.13;3.35;;;4.70;99.90;;;;;;6254990;22;20384;-51
2021/11/27 02:37:59;;;;;;;4.53;4.05;;;5.00;99.90;;;;;;6243665;22;20161;-51
2021/11/27 02:40:25;;;;;;;4.13;3.47;;;5.00;99.90;;;;;;6254092;22;20173;-51
2021/11/27 02:42:52;;;;;;;3.55;3.25;;;5.00;99.90;;;;;;6253794;22;20420;-51
2021/11/27 02:45:18;;;;;;;3.80;3.47;;;4.90;99.90;;;;;;6254119;22;20154;-51
2021/11/27 02:47:43;;;;;;;5.30;3.33;;;4.80;99.90;;;;;;6253924;23;20143;-51
2021/11/27 02:50:13;;;;;;;6.40;3.33;;;4.90;99.90;;;;;;6243716;23;20423;-51
2021/11/27 02:52:40;;;;;;;4.50;3.80;;;4.60;99.90;;;;;;6253990;22;20488;-51
2021/11/27 02:55:06;;;;;;;4.35;3.47;;;4.60;99.90;;;;;;6243261;22;20154;-51
2021/11/27 02:57:32;;;;;;;3.90;3.50;;;4.60;99.90;;;;;;6253276;23;20585;-51
2021/11/27 02:59:59;;;;;;;5.97;3.58;;;4.70;99.90;;;;;;6254523;22;20153;-51
2021/11/27 03:02:26;;;;;;;4.18;3.78;;;4.60;99.90;;;;;;6254073;22;20639;-51
2021/11/27 03:04:52;;;;;;;4.57;3.85;;;4.80;99.90;;;;;;6253586;22;20546;-51
2021/11/27 03:07:19;;;;;;;4.50;3.30;;;4.20;99.90;;;;;;6254153;22;20151;-51
2021/11/27 03:09:45;;;;;;;4.28;3.53;;;4.50;99.90;;;;;;6254028;22;20516;-51
2021/11/27 03:12:11;;;;;;;3.80;3.45;;;4.60;99.90;;;;;;6254060;23;20151;-50
2021/11/27 03:14:37;;;;;;;4.35;3.30;;;4.60;99.90;;;;;;6254310;22;20143;-51
2021/11/27 03:17:04;;;;;;;4.50;3.25;;;4.60;99.90;;;;;;6253938;22;20145;-51
2021/11/27 03:19:33;;;;;;;4.88;3.40;;;4.90;99.90;;;;;;6243084;22;20656;-51
2021/11/27 03:21:59;;;;;;;3.60;3.10;;;4.70;99.90;;;;;;6253780;22;20178;-50
2021/11/27 03:24:25;;;;;;;3.73;3.10;;;4.70;99.90;;;;;;6253536;22;20146;-52
2021/11/27 03:26:51;;;;;;;3.67;3.33;;;4.80;99.90;;;;;;6253939;22;20362;-51
2021/11/27 03:29:17;;;;;;;4.07;3.70;;;4.80;99.90;;;;;;6253638;23;20353;-52
2021/11/27 03:31:43;;;;;;;4.15;3.30;;;5.00;99.90;;;;;;6253887;23;20232;-52
2021/11/27 03:34:09;;;;;;;3.43;3.13;;;4.80;99.90;;;;;;6243060;22;20472;-51
2021/11/27 03:36:35;;;;;;;3.60;3.30;;;4.50;99.90;;;;;;6243936;22;20815;-49
2021/11/27 03:39:02;;;;;;;5.90;3.63;;;4.50;99.90;;;;;;6243148;22;20160;-51
2021/11/27 03:41:28;;;;;;;4.65;3.47;;;4.90;99.90;;;;;;6253649;22;20418;-51
2021/11/27 03:43:54;;;;;;;4.20;3.03;;;5.20;99.90;;;;;;6253451;23;20506;-51
2021/11/27 03:46:20;;;;;;;3.87;3.40;;;5.20;99.90;;;;;;6243247;23;20412;-49
2021/11/27 03:48:46;;;;;;;3.28;2.85;;;4.70;99.90;;;;;;6252830;23;20151;-50
2021/11/27 03:51:19;;;;;;;3.45;3.15;;;5.10;99.90;;;;;;6242271;22;20189;-51
2021/11/27 03:53:46;;;;;;;3.63;3.08;;;5.20;99.90;;;;;;6253100;22;20152;-50
2021/11/27 03:56:16;;;;;;;2.40;2.20;;;4.90;99.90;;;;;;6252426;22;20158;-51
2021/11/27 03:58:42;;;;;;;3.33;2.80;;;5.10;99.90;;;;;;6241205;23;20167;-51
2021/11/27 04:01:11;;;;;;;3.85;3.45;;;5.00;99.90;;;;;;6253057;22;20617;-51
2021/11/27 04:03:39;;;;;;;4.28;3.40;;;5.10;99.90;;;;;;6242352;22;20559;-51
2021/11/27 04:06:05;;;;;;;3.63;2.90;;;5.00;99.90;;;;;;6243132;22;20176;-51
2021/11/27 04:08:31;;;;;;;3.53;2.83;;;5.10;99.90;;;;;;6253437;22;20159;-49
2021/11/27 04:10:57;;;;;;;2.90;2.70;;;4.20;99.90;;;;;;6252563;23;20489;-51
2021/11/27 04:13:23;;;;;;;3.42;2.72;;;4.90;99.90;;;;;;6253103;22;20601;-50
2021/11/27 04:15:49;;;;;;;3.15;2.67;;;4.90;99.90;;;;;;6253036;22;20215;-51
2021/11/27 04:18:15;;;;;;;3.10;2.73;;;5.00;99.90;;;;;;6252405;23;20154;-50
2021/11/27 04:20:42;;;;;;;3.30;3.00;;;4.30;99.90;;;;;;6253046;22;20404;-49
2021/11/27 04:23:08;;;;;;;3.15;2.85;;;4.50;99.90;;;;;;6252917;22;20453;-50
2021/11/27 04:25:34;;;;;;;3.60;2.80;;;5.00;99.90;;;;;;6252980;22;20549;-50
2021/11/27 04:28:00;;;;;;;2.50;2.17;;;4.90;99.90;;;;;;6252559;22;20161;-51
2021/11/27 04:30:28;;;;;;;2.60;2.40;;;4.80;99.90;;;;;;6251986;23;20249;-50
2021/11/27 04:32:54;;;;;;;2.35;2.15;;;4.70;99.90;;;;;;6252979;22;20159;-51
2021/11/27 04:35:20;;;;;;;3.70;2.23;;;4.90;99.90;;;;;;6253295;23;20540;-50
2021/11/27 04:37:46;;;;;;;2.22;2.03;;;4.90;99.90;;;;;;6242837;22;20540;-49
2021/11/27 04:40:12;;;;;;;2.00;1.70;;;4.30;99.90;;;;;;6252743;22;20196;-51
2021/11/27 04:42:38;;;;;;;2.80;1.73;;;5.00;99.90;;;;;;6252342;22;20447;-49
2021/11/27 04:45:06;;;;;;;4.33;2.27;;;4.90;99.90;;;;;;6252940;22;20201;-49
2021/11/27 04:47:32;;;;;;;2.45;1.50;;;5.10;99.90;;;;;;6241596;22;20262;-50
2021/11/27 04:49:58;;;;;;;1.80;1.70;;;4.90;99.90;;;;;;6242991;22;20153;-53
2021/11/27 04:52:24;;;;;;;1.87;1.67;;;4.90;99.90;;;;;;6253068;22;20161;-52
2021/11/27 04:54:51;;;;;;;2.40;1.88;;;4.90;99.90;;;;;;6252816;23;20874;-52
2021/11/27 04:57:18;;;;;;;1.95;1.30;;;4.60;99.90;;;;;;6243090;22;20158;-52
2021/11/27 04:59:44;;;;;;;1.52;1.42;;;4.90;99.90;;;;;;6254013;22;20154;-50
2021/11/27 05:02:10;;;;;;;1.40;1.30;;;5.10;99.90;;;;;;6252068;23;20173;-51
2021/11/27 05:04:36;;;;;;;1.27;1.13;;;5.10;99.90;;;;;;6242183;22;20161;-51
2021/11/27 05:07:03;;;;;;;1.48;1.10;;;5.30;99.90;;;;;;6252667;22;20373;-50
2021/11/27 05:09:29;;;;;;;1.40;1.30;;;5.10;99.90;;;;;;6252217;22;20145;-51
2021/11/27 05:11:55;;;;;;;1.70;1.60;;;5.20;99.90;;;;;;6251931;23;20167;-51
2021/11/27 05:14:21;;;;;;;1.33;1.07;;;5.10;99.90;;;;;;6242598;23;20158;-51
2021/11/27 05:16:46;;;;;;;1.30;1.20;;;5.10;99.90;;;;;;6252204;22;20526;-50
2021/11/27 05:19:12;;;;;;;1.20;1.10;;;5.20;99.90;;;;;;6252016;23;20854;-50
2021/11/27 05:21:38;;;;;;;2.20;1.60;;;4.70;99.90;;;;;;6251982;23;20170;-51
2021/11/27 05:24:04;;;;;;;1.30;1.20;;;4.90;99.90;;;;;;6251712;23;20177;-50
2021/11/27 05:26:30;;;;;;;1.60;1.50;;;4.90;99.90;;;;;;6252094;22;20241;-51
2021/11/27 05:28:56;;;;;;;2.17;1.20;;;5.00;99.90;;;;;;6251995;23;20603;-51
2021/11/27 05:31:23;;;;;;;1.47;1.20;;;5.10;99.90;;;;;;6242799;22;20188;-50
2021/11/27 05:36:40;;;;;;;1.23;1.10;;;5.00;99.90;;;;;;6252849;22;20272;-50
2021/11/27 05:39:07;;;;;;;1.55;1.20;;;5.10;99.90;;;;;;6251777;23;20629;-51
2021/11/27 05:41:32;;;;;;;1.42;1.33;;;4.80;99.90;;;;;;6252373;22;20179;-51
2021/11/27 05:43:59;;;;;;;1.17;1.07;;;5.10;99.90;;;;;;6242392;23;20186;-50
2021/11/27 05:46:24;;;;;;;1.50;1.10;;;4.90;99.90;;;;;;6241855;22;20182;-50
2021/11/27 05:48:50;;;;;;;1.30;1.20;;;5.00;99.90;;;;;;6241722;23;20476;-50
2021/11/27 05:51:16;;;;;;;1.10;1.00;;;4.90;99.90;;;;;;6242226;23;20221;-51
2021/11/27 05:53:42;;;;;;;1.42;1.23;;;5.10;99.90;;;;;;6255004;22;20157;-50
2021/11/27 05:56:08;;;;;;;1.37;1.27;;;5.10;99.90;;;;;;6252041;23;20204;-50
2021/11/27 05:58:34;;;;;;;3.10;1.58;;;4.70;99.90;;;;;;6253743;22;20377;-50
2021/11/27 06:01:04;;;;;;;1.40;1.30;;;5.20;99.90;;;;;;6254433;23;20253;-50
2021/11/27 06:03:30;;;;;;;1.48;1.38;;;5.00;99.90;;;;;;6254074;22;20209;-50
2021/11/27 06:05:56;;;;;;;1.60;1.50;;;5.10;99.90;;;;;;6254579;22;20182;-50
2021/11/27 06:08:22;;;;;;;1.40;1.30;;;5.10;99.90;;;;;;6243917;22;20160;-50
2021/11/27 06:10:48;;;;;;;1.42;1.33;;;5.10;99.90;;;;;;6253317;22;20402;-50
2021/11/27 06:13:14;;;;;;;2.55;1.52;;;5.00;99.90;;;;;;6243289;22;20157;-50
2021/11/27 06:15:39;;;;;;;1.40;1.30;;;4.80;99.90;;;;;;6254142;23;20208;-50
2021/11/27 06:18:05;;;;;;;1.60;1.50;;;4.90;99.90;;;;;;6253693;23;20486;-50
2021/11/27 06:20:31;;;;;;;1.47;1.37;;;5.10;99.90;;;;;;6254570;23;20626;-50
2021/11/27 06:22:57;;;;;;;1.33;1.20;;;4.90;99.90;;;;;;6254463;23;20282;-50
2021/11/27 06:25:24;;;;;;;1.43;1.33;;;5.20;99.90;;;;;;6253260;23;20384;-50
2021/11/27 06:27:50;;;;;;;1.40;1.10;;;5.20;99.90;;;;;;6253636;22;20493;-50
2021/11/27 06:30:16;;;;;;;1.98;1.30;;;5.10;99.90;;;;;;6254135;22;20170;-50
2021/11/27 06:32:41;;;;;;;1.50;1.40;;;5.00;99.90;;;;;;6253691;22;20161;-50
2021/11/27 06:35:07;;;;;;;1.93;1.67;;;5.20;99.90;;;;;;6251894;22;20384;-50
2021/11/27 06:37:33;;;;;;;1.60;1.47;;;4.90;99.90;;;;;;6253371;23;20210;-50
2021/11/27 06:40:00;;;;;;;1.97;1.50;;;5.10;99.90;;;;;;6251443;22;20380;-50
2021/11/27 06:42:28;;;;;;;2.20;1.90;;;5.20;99.90;;;;;;6241771;23;20194;-50
2021/11/27 06:44:54;;;;;;;1.73;1.35;;;5.00;99.90;;;;;;6253377;23;20181;-51
2021/11/27 06:47:22;;;;;;;1.50;1.40;;;5.10;99.90;;;;;;6252414;22;20166;-50
2021/11/27 06:49:49;;;;;;;2.05;1.60;;;5.10;99.90;;;;;;6253463;22;20154;-50
2021/11/27 06:52:16;;;;;;;1.70;1.60;;;5.00;99.90;;;;;;6243430;22;20179;-50
2021/11/27 06:54:42;;;;;;;1.23;1.13;;;5.00;99.90;;;;;;6253593;22;20155;-50
2021/11/27 06:57:09;;;;;;;2.25;1.60;;;5.20;99.90;;;;;;6243349;22;20624;-50
2021/11/27 06:59:37;;;;;;;2.00;1.40;;;5.00;99.90;;;;;;6243138;22;20186;-50
2021/11/27 07:02:02;;;;;;;2.65;1.90;;;5.10;99.90;;;;;;6253130;22;20244;-50
2021/11/27 07:04:28;;;;;;;1.60;1.50;;;4.90;99.90;;;;;;6252801;23;20265;-50
2021/11/27 07:06:54;;;;;;;1.50;1.40;;;4.90;99.90;;;;;;6253743;22;20381;-50
2021/11/27 07:09:20;;;;;;;1.70;1.60;;;4.80;99.90;;;;;;6252902;22;20384;-50
2021/11/27 07:11:46;;;;;;;1.73;1.63;;;4.80;99.90;;;;;;6253320;23;20165;-50
2021/11/27 07:14:11;;;;;;;1.83;1.40;;;5.10;99.90;;;;;;6252768;23;20207;-50
2021/11/27 07:16:37;;;;;;;1.60;1.50;;;5.00;99.90;;;;;;6253425;23;20167;-50
2021/11/27 07:19:04;;;;;;;1.40;1.30;;;4.90;99.90;;;;;;6252868;22;20228;-50
2021/11/27 07:21:30;;;;;;;2.72;1.73;;;4.90;99.90;;;;;;6253161;23;20417;-50
2021/11/27 07:23:56;;;;;;;2.10;1.30;;;4.90;99.90;;;;;;6241955;23;20255;-49
2021/11/27 07:26:22;;;;;;;1.63;1.23;;;5.30;99.90;;;;;;6252095;23;20163;-51
2021/11/27 07:28:49;;;;;;;1.27;1.17;;;5.10;99.90;;;;;;6252675;22;20154;-50
2021/11/27 07:31:15;;;;;;;1.30;1.20;;;5.10;99.90;;;;;;6252752;22;20184;-50
2021/11/27 07:33:41;;;;;;;1.80;1.55;;;5.10;99.90;;;;;;6241838;22;20157;-50
2021/11/27 07:36:07;;;;;;;2.38;1.70;;;5.30;99.90;;;;;;6253169;22;20227;-51
2021/11/27 07:38:34;;;;;;;1.70;1.50;;;5.00;99.90;;;;;;6252594;23;20225;-51
2021/11/27 07:41:00;;;;;;;1.83;1.73;;;5.50;99.90;;;;;;6252592;23;20169;-51
2021/11/27 07:43:26;;;;;;;1.73;1.60;;;5.40;99.90;;;;;;6241745;22;20176;-50
2021/11/27 07:45:52;;;;;;;2.13;1.60;;;5.40;99.90;;;;;;6252351;22;20218;-50
2021/11/27 07:48:18;;;;;;;2.20;2.00;;;5.20;99.90;;;;;;6252406;23;20430;-50
2021/11/27 07:50:43;;;;;;;2.00;1.90;;;5.40;99.90;;;;;;6252715;23;20503;-50
2021/11/27 07:53:09;;;;;;;1.63;1.53;;;5.30;99.90;;;;;;6252520;23;20193;-50
2021/11/27 07:55:35;;;;;;;1.37;1.27;;;5.50;99.90;;;;;;6242717;23;20164;-50
2021/11/27 07:58:01;;;;;;;1.75;1.65;;;5.30;99.90;;;;;;6253031;23;20159;-50
2021/11/27 08:00:27;;;;;;;1.58;1.48;;;5.30;99.90;;;;;;6253273;22;20261;-50
2021/11/27 08:02:53;;;;;;;2.10;1.40;;;5.40;99.90;;;;;;6252770;23;20212;-50
2021/11/27 08:05:19;;;;;;;1.50;1.20;;;5.70;99.90;;;;;;6253047;23;20656;-50
2021/11/27 08:07:45;;;;;;;2.00;1.80;;;5.20;99.90;;;;;;6253093;22;20169;-50
2021/11/27 08:10:15;;;;;;;3.60;1.40;;;5.40;99.90;;;;;;6252362;22;20283;-50
2021/11/27 08:12:41;;;;;;;2.25;1.20;;;5.40;99.90;;;;;;6251639;22;20384;-50
2021/11/27 08:15:08;;;;;;;1.80;1.70;;;5.40;99.90;;;;;;6252740;22;20594;-50
2021/11/27 08:17:39;;;;;;;1.52;1.38;;;5.50;99.90;;;;;;6243183;22;20168;-50
2021/11/27 08:20:07;;;;;;;1.50;1.40;;;5.30;99.90;;;;;;6252040;22;20576;-50
2021/11/27 08:22:32;;;;;;;1.88;1.75;;;5.40;99.90;;;;;;6252916;22;20189;-50
2021/11/27 08:24:58;;;;;;;2.37;2.17;;;5.50;99.90;;;;;;6241051;23;20151;-50
2021/11/27 08:27:27;;;;;;;1.43;1.33;;;5.40;99.90;;;;;;6251975;22;20166;-50
2021/11/27 08:29:53;;;;;;;2.95;1.50;;;5.60;99.90;;;;;;6252930;22;20402;-50
2021/11/27 08:32:19;;;;;;;1.60;1.38;;;5.80;99.90;;;;;;6252603;22;20160;-50
2021/11/27 08:34:45;;;;;;;1.70;1.60;;;5.70;99.90;;;;;;6241910;22;20157;-51
2021/11/27 08:37:10;;;;;;;1.63;1.40;;;6.00;99.90;;;;;;6242029;23;20153;-51
2021/11/27 08:39:36;;;;;;;2.17;1.90;;;6.10;99.90;;;;;;6242510;23;20295;-50
2021/11/27 08:42:02;;;;;;;4.70;1.57;;;6.10;99.90;;;;;;6252464;22;20212;-50
2021/11/27 08:44:28;;;;;;;1.52;1.42;;;6.30;99.90;;;;;;6251364;23;20398;-51
2021/11/27 08:46:54;;;;;;;1.73;1.40;;;6.20;99.90;;;;;;6239936;23;20330;-51
2021/11/27 08:49:20;;;;;;;1.20;1.10;;;6.60;99.90;;;;;;6251949;23;20372;-50
2021/11/27 08:51:45;;;;;;;2.17;1.20;;;6.80;99.90;;;;;;6253261;23;20163;-51
2021/11/27 08:54:13;;;;;;;1.40;1.30;;;6.70;99.90;;;;;;6251877;23;20151;-51
2021/11/27 08:56:39;;;;;;;1.45;1.35;;;6.90;99.90;;;;;;6252366;22;20359;-50
2021/11/27 08:59:04;;;;;;;1.63;1.30;;;7.20;99.90;;;;;;6239554;23;20160;-50
2021/11/27 09:01:30;;;;;;;1.23;1.13;;;7.40;99.90;;;;;;6252120;23;20243;-50
2021/11/27 09:03:56;;;;;;;1.23;1.10;;;7.10;99.90;;;;;;6251461;22;20226;-51
2021/11/27 09:06:23;;;;;;;1.10;1.00;;;7.10;99.90;;;;;;6251897;22;20149;-50
2021/11/27 09:08:49;;;;;;;2.38;1.40;;;7.20;99.90;;;;;;6251888;22;21132;-50
2021/11/27 09:11:17;;;;;;;2.10;1.33;;;7.20;99.90;;;;;;6252579;23;20628;-51
2021/11/27 09:13:43;;;;;;;2.05;1.67;;;7.20;99.90;;;;;;6252339;23;20156;-50
2021/11/27 09:16:09;;;;;;;1.23;1.10;;;7.30;99.90;;;;;;6252648;23;20145;-50
2021/11/27 09:18:35;;;;;;;1.47;1.37;;;7.40;99.90;;;;;;6251407;22;20164;-50
2021/11/27 09:21:02;;;;;;;1.17;1.00;;;7.40;99.90;;;;;;6252774;23;20419;-50
2021/11/27 09:23:28;;;;;;;0.90;0.80;;;7.20;99.90;;;;;;6251347;22;20449;-50
2021/11/27 09:25:54;;;;;;;1.65;0.80;;;7.30;99.90;;;;;;6252162;23;20159;-50
2021/11/27 09:28:21;;;;;;;1.27;1.17;;;7.40;99.90;;;;;;6253329;22;20215;-50
2021/11/27 09:30:47;;;;;;;1.25;1.15;;;7.20;99.90;;;;;;6254470;22;20511;-50
2021/11/27 09:33:13;;;;;;;3.72;2.60;;;7.50;99.90;;;;;;6242345;22;20161;-49
2021/11/27 09:35:39;;;;;;;1.37;1.23;;;7.70;99.90;;;;;;6254033;22;20149;-50
2021/11/27 09:38:05;;;;;;;1.33;1.23;;;8.20;99.90;;;;;;6254026;22;20235;-50
2021/11/27 09:40:37;;;;;;;1.50;1.03;;;8.40;99.90;;;;;;6254127;23;20399;-50
2021/11/27 09:43:04;;;;;;;1.50;1.05;;;8.30;99.90;;;;;;6244364;22;20196;-51
2021/11/27 09:45:31;;;;;;;5.28;2.20;;;8.40;99.90;;;;;;6244196;22;20894;-51
2021/11/27 09:47:57;;;;;;;1.48;1.13;;;8.10;99.90;;;;;;6253065;22;20173;-51
2021/11/27 09:50:24;;;;;;;1.23;1.13;;;7.60;99.90;;;;;;6243881;23;20185;-51
2021/11/27 09:52:50;;;;;;;1.10;1.00;;;7.60;99.90;;;;;;6241941;23;20776;-51
2021/11/27 09:55:17;;;;;;;1.10;1.00;;;8.10;99.90;;;;;;6253972;23;20157;-52
2021/11/27 09:57:48;;;;;;;1.40;0.90;;;7.60;99.90;;;;;;6243208;22;20168;-51
2021/11/27 10:00:15;;;;;;;1.13;1.00;;;7.50;99.90;;;;;;6243946;22;20177;-52
2021/11/27 10:02:43;;;;;;;0.98;0.98;;;7.30;99.90;;;;;;6254693;22;20236;-52
2021/11/27 10:05:11;;;;;;;2.25;1.25;;;7.60;99.90;;;;;;6254127;23;20145;-53
2021/11/27 10:07:40;;;;;;;1.33;1.10;;;7.50;99.90;;;;;;6253911;22;20153;-50
2021/11/27 10:10:07;;;;;;;1.58;1.00;;;7.90;99.90;;;;;;6252470;22;20149;-51
2021/11/27 10:12:33;;;;;;;2.60;1.40;;;8.10;99.90;;;;;;6254745;22;20146;-52
2021/11/27 10:14:59;;;;;;;3.30;1.38;;;8.40;99.90;;;;;;6242510;23;20244;-51
2021/11/27 10:17:30;;;;;;;1.90;0.87;;;8.40;99.90;;;;;;6253973;22;20177;-52
2021/11/27 10:19:59;;;;;;;1.65;1.20;;;8.60;99.90;;;;;;6244638;22;20380;-52
2021/11/27 10:22:38;;;;;;;1.65;1.48;;;8.80;99.90;;;;;;6253194;22;20157;-52
2021/11/27 10:25:30;;;;;;;1.35;1.10;;;9.20;99.90;;;;;;6243526;22;20267;-51
2021/11/27 10:28:01;;;;;;;1.60;1.50;;;9.30;99.60;;;;;;6253825;22;20255;-52
2021/11/27 10:30:27;;;;;;;2.42;1.20;;;9.40;99.40;;;;;;6242246;23;20571;-52
2021/11/27 10:32:55;;;;;;;1.90;1.10;;;10.10;98.20;;;;;;6251729;22;20162;-52
2021/11/27 10:35:20;;;;;;;1.13;1.00;;;10.90;96.30;;;;;;6252034;22;20390;-50
2021/11/27 10:37:49;;;;;;;2.90;1.17;;;10.60;94.60;;;;;;6251208;23;20169;-50
2021/11/27 10:40:16;;;;;;;1.88;1.27;;;11.10;94.00;;;;;;6251442;22;20626;-50
2021/11/27 10:42:54;;;;;;;1.65;1.05;;;10.80;94.10;;;;;;6241743;22;20185;-50
2021/11/27 10:45:25;;;;;;;2.08;1.17;;;9.80;94.50;;;;;;6242307;22;20163;-50
2021/11/27 10:48:05;;;;;;;1.30;1.20;;;9.50;95.40;;;;;;6252681;22;20176;-51
2021/11/27 10:50:49;;;;;;;1.10;1.00;;;9.10;95.70;;;;;;6249247;22;20165;-51
2021/11/27 10:53:17;;;;;;;1.25;1.15;;;8.90;96.50;;;;;;6252464;22;20134;-50
2021/11/27 10:55:42;;;;;;;2.05;1.63;;;8.60;97.40;;;;;;6251681;22;20161;-50
2021/11/27 10:58:10;;;;;;;2.10;1.60;;;8.60;98.10;;;;;;6242442;22;20284;-51
2021/11/27 11:00:40;;;;;;;2.28;1.98;;;8.40;98.20;;;;;;6241112;22;20462;-51
2021/11/27 11:03:27;;;;;;;2.30;1.17;;;8.30;98.30;;;;;;6251230;22;20264;-51
2021/11/27 11:05:55;;;;;;;1.17;1.00;;;8.40;97.90;;;;;;6252047;22;20162;-50
2021/11/27 11:08:37;;;;;;;1.27;1.17;;;8.30;98.20;;;;;;6242076;22;20157;-51
2021/11/27 11:11:28;;;;;;;2.60;1.60;;;8.20;98.10;;;;;;6251737;22;20287;-50
2021/11/27 11:13:58;;;;;;;1.73;1.63;;;8.10;99.00;;;;;;6252371;22;20496;-50
2021/11/27 11:16:32;;;;;;;1.88;1.33;;;8.10;98.90;;;;;;6252247;22;20160;-53
2021/11/27 11:19:18;;;;;;;2.70;1.25;;;8.20;98.30;;;;;;6241459;22;20167;-50
2021/11/27 11:22:13;;;;;;;5.68;1.65;;;8.00;98.00;;;;;;6252973;22;20518;-50
2021/11/27 11:24:44;;;;;;;2.03;1.80;;;8.10;98.50;;;;;;6252390;22;20192;-50
2021/11/27 11:27:11;;;;;;;1.95;0.80;;;8.10;98.80;;;;;;6251319;22;20149;-51
2021/11/27 11:29:46;;;;;;;1.33;1.10;;;7.80;98.70;;;;;;6252132;22;20149;-50
2021/11/27 11:32:21;;;;;;;2.10;1.10;;;7.70;98.70;;;;;;6252722;22;20163;-50
2021/11/27 11:34:51;;;;;;;1.48;1.20;;;7.70;98.80;;;;;;6252608;22;20591;-51
2021/11/27 11:37:16;;;;;;;2.00;1.30;;;7.80;98.80;;;;;;6240218;23;20162;-50
2021/11/27 11:39:42;;;;;;;2.07;1.50;;;7.10;99.00;;;;;;6252283;23;20157;-50
2021/11/27 11:42:09;;;;;;;1.27;1.17;;;7.70;99.30;;;;;;6252193;23;20435;-51
2021/11/27 11:44:36;;;;;;;2.95;1.20;;;7.60;99.20;;;;;;6252560;22;20173;-51
2021/11/27 11:47:03;;;;;;;1.80;1.30;;;7.80;99.10;;;;;;6242079;22;20181;-51
2021/11/27 11:49:29;;;;;;;2.13;1.35;;;7.90;99.40;;;;;;6251638;22;20647;-50
2021/11/27 11:52:06;;;;;;;3.88;1.48;;;7.30;99.10;;;;;;6242233;22;20341;-50
2021/11/27 11:54:33;;;;;;;1.73;1.48;;;7.80;99.60;;;;;;6252068;22;20160;-51
2021/11/27 11:57:11;;;;;;;1.77;1.50;;;7.90;99.60;;;;;;6252514;22;20153;-51
2021/11/27 11:59:40;;;;;;;2.42;1.50;;;7.60;99.40;;;;;;6252146;22;20444;-51
2021/11/27 12:02:28;;;;;;;2.15;1.35;;;8.50;99.30;;;;;;6242049;22;20650;-50
2021/11/27 12:05:11;;;;;;;1.38;1.27;;;8.10;99.70;;;;;;6250887;22;20147;-50
2021/11/27 12:07:43;;;;;;;2.78;1.50;;;8.10;99.40;;;;;;6240147;23;20617;-50
2021/11/27 12:10:19;;;;;;;3.00;1.33;;;8.30;99.40;;;;;;6251398;22;20175;-51
2021/11/27 12:13:09;;;;;;;2.00;1.30;;;7.60;98.90;;;;;;6240318;23;20157;-51
2021/11/27 12:15:39;;;;;;;2.08;1.50;;;8.10;99.20;;;;;;6251549;22;20165;-51
2021/11/27 12:18:05;;;;;;;1.83;1.73;;;8.00;99.60;;;;;;6252712;22;20149;-50
2021/11/27 12:21:03;;;;;;;1.67;1.20;;;8.00;99.90;;;;;;6251781;22;20180;-51
2021/11/27 12:23:31;;;;;;;1.20;1.08;;;7.80;99.70;;;;;;6228496;22;20181;-51
2021/11/27 12:26:10;;;;;;;3.85;1.40;;;7.40;99.60;;;;;;6252610;22;20149;-51
2021/11/27 12:28:41;;;;;;;3.10;1.75;;;7.50;99.60;;;;;;6241882;22;20645;-50
2021/11/27 12:31:12;;;;;;;2.75;1.55;;;8.00;99.90;;;;;;6252229;23;20223;-52
2021/11/27 12:33:53;;;;;;;1.70;1.60;;;7.70;99.90;;;;;;6252280;22;20223;-52
2021/11/27 12:36:35;;;;;;;1.23;1.13;;;7.80;99.90;;;;;;6251629;22;20156;-51
2021/11/27 12:39:04;;;;;;;2.40;1.40;;;7.70;99.90;;;;;;6251657;22;20137;-51
2021/11/27 12:41:35;;;;;;;4.75;3.15;;;7.90;99.90;;;;;;6242127;23;20197;-51
2021/11/27 12:44:20;;;;;;;1.60;1.50;;;7.60;99.90;;;;;;6241746;22;20185;-52
2021/11/27 12:46:55;;;;;;;1.83;1.65;;;8.20;99.90;;;;;;6239966;23;20184;-51
2021/11/27 12:49:33;;;;;;;1.42;1.30;;;8.20;99.30;;;;;;6252749;23;20228;-51
2021/11/27 12:52:31;;;;;;;1.45;1.33;;;8.40;98.80;;;;;;6242175;22;20238;-51
2021/11/27 12:55:10;;;;;;;1.50;1.40;;;8.50;98.40;;;;;;6241269;23;20161;-51
2021/11/27 12:57:43;;;;;;;1.17;1.08;;;8.40;98.60;;;;;;6251713;23;20564;-51
2021/11/27 13:00:19;;;;;;;1.50;1.20;;;8.30;98.40;;;;;;6252416;22;20169;-52
2021/11/27 13:03:01;;;;;;;1.30;1.20;;;8.10;98.30;;;;;;6241745;22;20257;-52
2021/11/27 13:05:38;;;;;;;1.63;1.40;;;8.10;98.40;;;;;;6242452;22;20492;-52